CMA CGM Butterfly — A8NO8 — position and weather

sailwx.info

Track history (hours):
 
Tides and Currents Weather Stations Pressure Air Temp Water Temp Dewpoint Dewpoint Depression Visibility Wind Speed Wind Dir Waves Ship Positions

CMA CGM Butterfly

Last reported at 2015-Jul-01 07:33 UTC. Time now 2015-Jul-04 20:43 UTC.
Position N 01°11' E 103°38'.

Length 350 m; draft 13.5 m.

Type: Ship (hazmat cat A). MMSI: 636091420.

Date/timePositionNaut miles runAvg speedWind from/ knotsBaromVisibWave heightAir tempDewpointWater temp
2015-Jul-01 07:33N 01°11' E 103°38'1414.3
2015-Jul-01 06:33N 01°13' E 103°52'1616.2
2015-Jul-01 05:33N 01°16' E 104°08'  
2015-Jun-28 01:15N 22°07' E 114°20'1512.9
2015-Jun-28 00:05N 22°16' E 114°06'611.2
2015-Jun-27 23:33N 22°21' E 114°03'10 9.5
2015-Jun-27 22:33N 22°25' E 113°53'3 2.6
2015-Jun-27 21:29N 22°28' E 113°53'0 0.0
2015-Jun-27 20:32N 22°28' E 113°53'0 0.0
2015-Jun-27 19:32N 22°28' E 113°53'0 0.0
2015-Jun-27 18:29N 22°28' E 113°53'0 0.0
2015-Jun-27 17:23N 22°28' E 113°53'0 0.0
2015-Jun-27 16:32N 22°28' E 113°53'0 0.0
2015-Jun-27 15:32N 22°28' E 113°53'0 0.0
2015-Jun-27 14:29N 22°28' E 113°53'0 0.0
2015-Jun-27 13:32N 22°28' E 113°53'0 0.0
2015-Jun-27 12:29N 22°28' E 113°53'0 0.0
2015-Jun-27 11:32N 22°28' E 113°53'0 0.0
2015-Jun-27 10:29N 22°28' E 113°53'0 0.0
2015-Jun-27 09:32N 22°28' E 113°53'0 0.0
2015-Jun-27 08:33N 22°28' E 113°53'2 2.3
2015-Jun-27 07:33N 22°25' E 113°53'20 9.0
2015-Jun-27 05:20N 22°13' E 114°10'5 6.8
2015-Jun-27 04:33N 22°09' E 114°14'9 8.8
2015-Jun-27 03:33N 22°10' E 114°24'1010.2
2015-Jun-27 02:33N 22°18' E 114°30'19 0.8
2015-Jun-26 02:27N 22°34' E 114°19'18 8.5
2015-Jun-26 00:20N 22°21' E 114°32'125 9.8
2015-Jun-25 11:33N 22°45' E 116°44'1110.8
2015-Jun-25 10:32N 22°51' E 116°54'1210.7
2015-Jun-25 09:23N 22°59' E 117°04'910.5
2015-Jun-25 08:33N 23°04' E 117°12'3612.1
2015-Jun-25 05:33N 23°28' E 117°42'1413.4
2015-Jun-25 04:32N 23°37' E 117°53'1414.2
2015-Jun-25 03:33N 23°46' E 118°04'1514.7
2015-Jun-25 02:32N 23°56' E 118°17'1514.8
2015-Jun-25 01:32N 24°04' E 118°30'2114.6
2015-Jun-25 00:04N 24°17' E 118°49'914.6
2015-Jun-24 23:29N 24°21' E 118°57'1514.4
2015-Jun-24 22:28N 24°30' E 119°10'1614.0
2015-Jun-24 21:20N 24°39' E 119°24'2813.5
2015-Jun-24 19:17N 24°55' E 119°49'29413.4
2015-Jun-23 21:19N 29°10' E 122°35'2514.1
2015-Jun-23 19:33N 29°35' E 122°37'613.4
2015-Jun-23 19:05N 29°40' E 122°33'36 1.5
2015-Jun-22 19:28N 29°56' E 121°56'0 0.0
2015-Jun-22 18:28N 29°56' E 121°56'0 0.0
2015-Jun-22 17:25N 29°56' E 121°56'0 0.0
2015-Jun-22 16:31N 29°56' E 121°56'0 0.0
2015-Jun-22 15:31N 29°56' E 121°56'0 0.0
2015-Jun-22 14:16N 29°56' E 121°56'0 0.0
2015-Jun-22 13:31N 29°56' E 121°56'0 0.0
2015-Jun-22 12:28N 29°56' E 121°56'0 0.0
2015-Jun-22 11:16N 29°56' E 121°56'0 0.0
2015-Jun-22 10:25N 29°56' E 121°56'0 0.0
2015-Jun-22 08:25N 29°56' E 121°56'0 0.0
2015-Jun-22 07:25N 29°56' E 121°56'0 0.0
2015-Jun-22 06:19N 29°56' E 121°56'0 0.0
2015-Jun-22 04:25N 29°56' E 121°56'0 0.0
2015-Jun-22 03:25N 29°56' E 121°56'0 0.0
2015-Jun-22 02:22N 29°56' E 121°56'0 0.0
2015-Jun-22 01:28N 29°56' E 121°56'0 0.0
2015-Jun-22 00:31N 29°56' E 121°56'3 3.0
2015-Jun-21 23:33N 29°58' E 121°58'1110.8
2015-Jun-21 22:33N 29°55' E 122°10'1110.9
2015-Jun-21 21:34N 29°46' E 122°17'5 4.9
2015-Jun-21 20:32N 29°45' E 122°23'0 0.1
2015-Jun-21 19:20N 29°45' E 122°23'0 0.2
2015-Jun-21 18:08N 29°45' E 122°23'0 0.1
2015-Jun-21 17:08N 29°45' E 122°23'0 0.1
2015-Jun-21 16:32N 29°45' E 122°23'0 0.2
2015-Jun-21 14:29N 29°45' E 122°23'4 4.2
2015-Jun-21 13:33N 29°44' E 122°27'8 8.4
2015-Jun-21 12:33N 29°45' E 122°37'  
Track history (hours):
 
Tides and Currents Weather Stations Pressure Air Temp Water Temp Dewpoint Dewpoint Depression Visibility Wind Speed Wind Dir Waves Ship Positions

CMA CGM Butterfly

Last reported at 2015-Jul-01 07:33 UTC. Time now 2015-Jul-04 20:43 UTC.
Position N 01°11' E 103°38'.

Length 350 m; draft 13.5 m.

Type: Ship (hazmat cat A). MMSI: 636091420.

Date/timePositionNaut miles runAvg speedWind from/ knotsBaromVisibWave heightAir tempDewpointWater temp
2015-Jul-01 07:33N 01°11' E 103°38'1414.3
2015-Jul-01 06:33N 01°13' E 103°52'1616.2
2015-Jul-01 05:33N 01°16' E 104°08'  
2015-Jun-28 01:15N 22°07' E 114°20'1512.9
2015-Jun-28 00:05N 22°16' E 114°06'611.2
2015-Jun-27 23:33N 22°21' E 114°03'10 9.5
2015-Jun-27 22:33N 22°25' E 113°53'3 2.6
2015-Jun-27 21:29N 22°28' E 113°53'0 0.0
2015-Jun-27 20:32N 22°28' E 113°53'0 0.0
2015-Jun-27 19:32N 22°28' E 113°53'0 0.0
2015-Jun-27 18:29N 22°28' E 113°53'0 0.0
2015-Jun-27 17:23N 22°28' E 113°53'0 0.0
2015-Jun-27 16:32N 22°28' E 113°53'0 0.0
2015-Jun-27 15:32N 22°28' E 113°53'0 0.0
2015-Jun-27 14:29N 22°28' E 113°53'0 0.0
2015-Jun-27 13:32N 22°28' E 113°53'0 0.0
2015-Jun-27 12:29N 22°28' E 113°53'0 0.0
2015-Jun-27 11:32N 22°28' E 113°53'0 0.0
2015-Jun-27 10:29N 22°28' E 113°53'0 0.0
2015-Jun-27 09:32N 22°28' E 113°53'0 0.0
2015-Jun-27 08:33N 22°28' E 113°53'2 2.3
2015-Jun-27 07:33N 22°25' E 113°53'20 9.0
2015-Jun-27 05:20N 22°13' E 114°10'5 6.8
2015-Jun-27 04:33N 22°09' E 114°14'9 8.8
2015-Jun-27 03:33N 22°10' E 114°24'1010.2
2015-Jun-27 02:33N 22°18' E 114°30'19 0.8
2015-Jun-26 02:27N 22°34' E 114°19'18 8.5
2015-Jun-26 00:20N 22°21' E 114°32'125 9.8
2015-Jun-25 11:33N 22°45' E 116°44'1110.8
2015-Jun-25 10:32N 22°51' E 116°54'1210.7
2015-Jun-25 09:23N 22°59' E 117°04'910.5
2015-Jun-25 08:33N 23°04' E 117°12'3612.1
2015-Jun-25 05:33N 23°28' E 117°42'1413.4
2015-Jun-25 04:32N 23°37' E 117°53'1414.2
2015-Jun-25 03:33N 23°46' E 118°04'1514.7
2015-Jun-25 02:32N 23°56' E 118°17'1514.8
2015-Jun-25 01:32N 24°04' E 118°30'2114.6
2015-Jun-25 00:04N 24°17' E 118°49'914.6
2015-Jun-24 23:29N 24°21' E 118°57'1514.4
2015-Jun-24 22:28N 24°30' E 119°10'1614.0
2015-Jun-24 21:20N 24°39' E 119°24'2813.5
2015-Jun-24 19:17N 24°55' E 119°49'29413.4
2015-Jun-23 21:19N 29°10' E 122°35'2514.1
2015-Jun-23 19:33N 29°35' E 122°37'613.4
2015-Jun-23 19:05N 29°40' E 122°33'36 1.5
2015-Jun-22 19:28N 29°56' E 121°56'0 0.0
2015-Jun-22 18:28N 29°56' E 121°56'0 0.0
2015-Jun-22 17:25N 29°56' E 121°56'0 0.0
2015-Jun-22 16:31N 29°56' E 121°56'0 0.0
2015-Jun-22 15:31N 29°56' E 121°56'0 0.0
2015-Jun-22 14:16N 29°56' E 121°56'0 0.0
2015-Jun-22 13:31N 29°56' E 121°56'0 0.0
2015-Jun-22 12:28N 29°56' E 121°56'0 0.0
2015-Jun-22 11:16N 29°56' E 121°56'0 0.0
2015-Jun-22 10:25N 29°56' E 121°56'0 0.0
2015-Jun-22 08:25N 29°56' E 121°56'0 0.0
2015-Jun-22 07:25N 29°56' E 121°56'0 0.0
2015-Jun-22 06:19N 29°56' E 121°56'0 0.0
2015-Jun-22 04:25N 29°56' E 121°56'0 0.0
2015-Jun-22 03:25N 29°56' E 121°56'0 0.0
2015-Jun-22 02:22N 29°56' E 121°56'0 0.0
2015-Jun-22 01:28N 29°56' E 121°56'0 0.0
2015-Jun-22 00:31N 29°56' E 121°56'3 3.0
2015-Jun-21 23:33N 29°58' E 121°58'1110.8
2015-Jun-21 22:33N 29°55' E 122°10'1110.9
2015-Jun-21 21:34N 29°46' E 122°17'5 4.9
2015-Jun-21 20:32N 29°45' E 122°23'0 0.1
2015-Jun-21 19:20N 29°45' E 122°23'0 0.2
2015-Jun-21 18:08N 29°45' E 122°23'0 0.1
2015-Jun-21 17:08N 29°45' E 122°23'0 0.1
2015-Jun-21 16:32N 29°45' E 122°23'0 0.2
2015-Jun-21 14:29N 29°45' E 122°23'4 4.2
2015-Jun-21 13:33N 29°44' E 122°27'8 8.4
2015-Jun-21 12:33N 29°45' E 122°37'  

Dump ship's entire track history